Time;durP1;ratioP1;P1;durP2;ratioP2;P2;SDS_P1;SDS_P2;PMS_P1;PMS_P2;Temp;Humidity;BMP_temperature;BMP_pressure;BME280_temperature;BME280_humidity;BME280_pressure;Samples;Min_cycle;Max_cycle;Signal;HPM_P1;HPM_P2
2023/03/24 00:02:20;;;;;;;5.18;1.92;;;16.60;99.90;;;;;;10530565;28;20499;-24
2023/03/24 00:07:22;;;;;;;6.53;1.70;;;17.70;99.90;;;;;;10536222;28;20044;-24
2023/03/24 00:12:24;;;;;;;4.97;2.13;;;16.40;99.90;;;;;;10526212;28;20059;-23
2023/03/24 00:17:28;;;;;;;7.00;1.87;;;16.10;99.90;;;;;;10539634;28;20493;-24
2023/03/24 00:22:30;;;;;;;5.60;2.25;;;17.10;99.90;;;;;;10538234;28;20527;-23
2023/03/24 00:27:35;;;;;;;9.60;2.73;;;17.00;99.90;;;;;;10548398;28;20054;-26
2023/03/24 00:32:39;;;;;;;6.82;1.52;;;17.20;99.90;;;;;;10524249;28;20044;-24
2023/03/24 00:37:43;;;;;;;7.82;2.13;;;17.00;99.90;;;;;;10532370;28;20507;-25
2023/03/24 00:42:46;;;;;;;5.22;2.13;;;16.80;99.90;;;;;;10531185;28;20036;-24
2023/03/24 00:47:52;;;;;;;6.05;1.63;;;16.00;99.90;;;;;;10537210;28;20069;-25
2023/03/24 00:52:56;;;;;;;4.60;1.40;;;17.10;99.90;;;;;;10539876;28;20418;-24
2023/03/24 00:57:59;;;;;;;6.35;2.45;;;16.20;99.90;;;;;;10540577;28;20050;-26
2023/03/24 01:03:03;;;;;;;4.00;1.70;;;16.40;99.90;;;;;;10551421;28;20053;-24
2023/03/24 01:08:06;;;;;;;3.95;2.15;;;16.50;99.90;;;;;;10535667;28;20505;-25
2023/03/24 01:13:09;;;;;;;6.90;2.65;;;14.70;99.90;;;;;;10545954;28;20133;-25
2023/03/24 01:18:13;;;;;;;2.97;1.77;;;13.90;99.90;;;;;;10521219;28;20060;-24
2023/03/24 01:23:20;;;;;;;6.65;2.00;;;14.50;99.90;;;;;;10530178;28;20135;-25
2023/03/24 01:28:24;;;;;;;9.20;2.45;;;13.80;99.90;;;;;;10510664;28;20041;-24
2023/03/24 01:33:28;;;;;;;15.10;2.65;;;13.30;99.90;;;;;;10536465;28;20250;-25
2023/03/24 01:38:29;;;;;;;14.77;2.38;;;12.80;99.90;;;;;;10546730;28;20666;-25
2023/03/24 01:43:34;;;;;;;14.43;2.40;;;12.60;99.90;;;;;;10549828;28;20040;-25
2023/03/24 01:48:43;;;;;;;18.23;3.08;;;12.30;99.90;;;;;;10550219;28;20398;-24
2023/03/24 01:53:48;;;;;;;12.93;2.72;;;11.80;99.90;;;;;;10513435;28;20052;-25
2023/03/24 01:58:53;;;;;;;29.83;3.38;;;12.50;99.90;;;;;;10544514;28;20056;-24
2023/03/24 02:03:58;;;;;;;14.10;2.78;;;12.10;99.90;;;;;;10520801;28;20063;-23
2023/03/24 02:09:01;;;;;;;13.32;2.88;;;12.50;99.90;;;;;;10529299;28;20093;-23
2023/03/24 02:14:04;;;;;;;17.50;2.38;;;12.40;99.90;;;;;;10537510;28;20051;-26
2023/03/24 02:19:41;;;;;;;7.63;1.73;;;11.60;99.90;;;;;;10538866;28;20047;-26
2023/03/24 02:25:11;;;;;;;15.93;2.28;;;12.20;99.90;;;;;;10509740;28;20052;-25
2023/03/24 02:30:43;;;;;;;15.07;1.92;;;12.10;99.90;;;;;;10538903;28;20390;-24
2023/03/24 02:36:20;;;;;;;27.50;2.88;;;11.40;99.90;;;;;;10509756;28;20052;-25
2023/03/24 02:41:29;;;;;;;25.88;3.58;;;10.90;99.90;;;;;;10524283;28;20051;-25
2023/03/24 02:46:36;;;;;;;21.75;3.58;;;11.60;99.90;;;;;;10534113;28;21692;-25
2023/03/24 02:51:46;;;;;;;22.45;3.40;;;11.00;99.90;;;;;;10552475;28;20039;-24
2023/03/24 02:56:55;;;;;;;22.55;2.72;;;11.10;99.90;;;;;;10533463;28;20047;-22
2023/03/24 03:02:01;;;;;;;14.48;2.95;;;11.00;99.90;;;;;;10528497;28;20171;-25
2023/03/24 03:07:08;;;;;;;9.70;1.73;;;11.80;99.90;;;;;;10518828;28;20531;-25
2023/03/24 03:12:13;;;;;;;21.15;2.85;;;11.10;99.90;;;;;;10512631;28;20081;-23
2023/03/24 03:17:19;;;;;;;15.88;2.67;;;11.40;99.90;;;;;;10529603;28;20511;-24
2023/03/24 03:22:25;;;;;;;18.27;2.92;;;10.90;99.90;;;;;;10534023;28;20052;-24
2023/03/24 03:27:31;;;;;;;19.58;2.95;;;11.40;99.90;;;;;;10522735;28;20040;-24
2023/03/24 03:32:38;;;;;;;21.58;3.22;;;11.70;99.90;;;;;;10537083;28;20047;-25
2023/03/24 03:37:45;;;;;;;23.90;3.00;;;11.40;99.90;;;;;;10549117;28;20064;-27
2023/03/24 03:42:50;;;;;;;37.58;4.43;;;11.20;99.90;;;;;;10543229;28;20048;-24
2023/03/24 03:47:52;;;;;;;24.92;4.25;;;11.00;99.90;;;;;;10521535;28;20064;-25
2023/03/24 03:52:54;;;;;;;30.67;4.13;;;11.10;99.90;;;;;;10546825;28;20043;-23
2023/03/24 03:57:57;;;;;;;32.70;3.40;;;10.70;99.90;;;;;;10536908;28;20389;-27
2023/03/24 04:03:16;;;;;;;24.75;3.85;;;10.80;99.90;;;;;;10533700;28;20434;-24
2023/03/24 04:08:24;;;;;;;33.17;4.20;;;11.10;99.90;;;;;;10528965;28;20389;-24
2023/03/24 04:13:37;;;;;;;33.38;4.53;;;10.30;99.90;;;;;;10535265;28;20114;-24
2023/03/24 04:18:55;;;;;;;22.50;3.17;;;10.80;99.90;;;;;;10530807;28;20075;-24
2023/03/24 04:24:07;;;;;;;29.23;3.78;;;10.60;99.90;;;;;;10539286;28;20535;-24
2023/03/24 04:29:18;;;;;;;42.80;4.90;;;11.10;99.90;;;;;;10544020;28;20047;-24
2023/03/24 04:34:24;;;;;;;31.77;4.88;;;10.80;99.90;;;;;;10522656;28;20040;-25
2023/03/24 04:39:29;;;;;;;25.67;3.63;;;10.20;99.90;;;;;;10546547;28;20052;-24
2023/03/24 04:44:33;;;;;;;41.35;4.32;;;11.30;99.90;;;;;;10527828;28;20488;-25
2023/03/24 04:49:37;;;;;;;33.03;3.42;;;10.10;99.90;;;;;;10539714;28;20076;-25
2023/03/24 04:54:39;;;;;;;53.95;5.35;;;11.30;99.90;;;;;;10534125;28;20086;-24
2023/03/24 04:59:43;;;;;;;36.38;5.28;;;10.50;99.90;;;;;;10545988;28;20446;-24
2023/03/24 05:04:44;;;;;;;32.30;4.05;;;10.90;99.90;;;;;;10532409;28;20472;-24
2023/03/24 05:09:46;;;;;;;17.48;3.92;;;11.40;99.90;;;;;;10521607;28;20044;-24
2023/03/24 05:14:50;;;;;;;26.83;3.67;;;11.40;99.90;;;;;;10524666;28;20099;-24
2023/03/24 05:19:51;;;;;;;37.92;4.93;;;11.00;99.90;;;;;;10543941;28;20144;-24
2023/03/24 05:24:53;;;;;;;45.72;5.45;;;10.80;99.90;;;;;;10556766;28;20078;-24
2023/03/24 05:29:56;;;;;;;29.45;5.38;;;10.30;99.90;;;;;;10545291;28;20184;-23
2023/03/24 05:34:58;;;;;;;27.80;5.03;;;10.60;99.90;;;;;;10551979;28;20078;-25
2023/03/24 05:40:00;;;;;;;31.95;4.85;;;10.30;99.90;;;;;;10531591;28;20075;-24
2023/03/24 05:45:05;;;;;;;37.78;4.28;;;11.70;99.90;;;;;;10530616;28;20122;-24
2023/03/24 05:50:07;;;;;;;25.10;4.30;;;11.30;99.90;;;;;;10547784;28;20047;-24
2023/03/24 05:55:09;;;;;;;33.33;5.00;;;10.70;99.90;;;;;;10544525;28;20051;-25
2023/03/24 06:00:15;;;;;;;21.92;3.95;;;10.60;99.90;;;;;;10518312;28;20650;-24
2023/03/24 06:05:19;;;;;;;55.22;4.97;;;10.40;99.90;;;;;;10524100;28;20072;-25
2023/03/24 06:10:25;;;;;;;28.42;4.30;;;10.70;99.90;;;;;;10548441;28;20066;-25
2023/03/24 06:15:29;;;;;;;14.82;2.60;;;10.80;99.90;;;;;;10538905;28;20432;-24
2023/03/24 06:20:31;;;;;;;41.53;5.40;;;11.60;99.90;;;;;;10537866;28;20130;-25
2023/03/24 06:25:35;;;;;;;18.40;2.90;;;11.30;99.90;;;;;;10557633;28;20101;-24
2023/03/24 06:30:39;;;;;;;25.98;3.63;;;12.20;99.90;;;;;;10543712;28;20092;-23
2023/03/24 06:35:41;;;;;;;33.42;5.22;;;11.60;99.90;;;;;;10518653;28;20097;-25
2023/03/24 06:40:43;;;;;;;29.03;3.93;;;10.60;99.90;;;;;;10528463;28;20052;-24
2023/03/24 06:45:46;;;;;;;38.25;5.13;;;10.80;99.90;;;;;;10536036;28;20055;-24
2023/03/24 06:50:48;;;;;;;23.85;3.25;;;11.20;99.90;;;;;;10519308;28;20067;-24
2023/03/24 06:55:50;;;;;;;29.08;5.25;;;11.60;99.90;;;;;;10522434;28;20087;-27
2023/03/24 07:00:54;;;;;;;29.73;4.03;;;12.00;99.90;;;;;;10512430;28;20079;-23
2023/03/24 07:15:07;;;;;;;30.13;3.80;;;11.20;99.90;;;;;;10502072;27;20114;-23
2023/03/24 07:20:09;;;;;;;28.25;4.00;;;11.00;99.90;;;;;;10536057;28;20569;-24
2023/03/24 07:25:13;;;;;;;22.73;4.00;;;11.30;99.90;;;;;;10505014;28;20045;-25
2023/03/24 07:30:16;;;;;;;23.63;3.42;;;11.20;99.90;;;;;;10511916;28;20437;-24
2023/03/24 07:35:18;;;;;;;33.58;4.13;;;11.70;99.90;;;;;;10544111;28;20072;-25
2023/03/24 07:40:20;;;;;;;18.90;3.05;;;10.80;99.90;;;;;;10521276;28;20049;-25
2023/03/24 07:45:24;;;;;;;23.27;3.38;;;11.10;99.90;;;;;;10512045;28;20044;-24
2023/03/24 07:50:26;;;;;;;16.52;2.58;;;11.20;99.90;;;;;;10505545;28;20071;-26
2023/03/24 07:55:28;;;;;;;20.02;3.08;;;12.60;99.90;;;;;;10517260;28;20131;-24
2023/03/24 08:00:32;;;;;;;22.10;3.47;;;12.00;99.90;;;;;;10514068;28;20476;-24
2023/03/24 08:05:34;;;;;;;25.98;3.13;;;11.20;99.90;;;;;;10506710;28;20165;-25
2023/03/24 08:10:36;;;;;;;23.77;3.65;;;11.50;99.90;;;;;;10522207;28;20548;-25
2023/03/24 08:15:39;;;;;;;25.50;4.40;;;11.90;99.90;;;;;;10519506;28;20044;-25
2023/03/24 08:20:42;;;;;;;13.07;2.65;;;12.00;99.90;;;;;;10524029;28;20083;-25
2023/03/24 08:25:46;;;;;;;12.07;2.40;;;11.90;99.90;;;;;;10484341;28;20110;-27
2023/03/24 08:30:49;;;;;;;16.75;2.38;;;11.80;99.90;;;;;;10505866;28;20691;-23
2023/03/24 08:35:56;;;;;;;17.58;3.00;;;12.30;99.90;;;;;;10478808;28;20480;-26
2023/03/24 08:41:00;;;;;;;24.83;4.20;;;11.30;99.90;;;;;;10478556;28;20094;-24
2023/03/24 08:46:08;;;;;;;26.67;3.13;;;11.20;99.90;;;;;;10502291;28;20049;-25
2023/03/24 08:51:11;;;;;;;26.50;3.20;;;11.20;99.90;;;;;;10478455;28;20064;-23
2023/03/24 08:56:13;;;;;;;28.75;4.07;;;11.40;99.90;;;;;;10487307;28;20048;-27
2023/03/24 09:01:17;;;;;;;30.23;3.35;;;11.20;99.90;;;;;;10501996;28;20083;-27
2023/03/24 09:06:19;;;;;;;24.83;3.65;;;11.30;99.90;;;;;;10504640;28;20384;-25
2023/03/24 09:11:22;;;;;;;25.70;4.30;;;11.90;99.90;;;;;;10484609;28;20117;-25
2023/03/24 09:16:25;;;;;;;18.98;3.25;;;12.00;99.90;;;;;;10490432;28;20060;-23
2023/03/24 09:21:27;;;;;;;16.67;2.88;;;12.20;99.90;;;;;;10479693;28;20123;-25
2023/03/24 09:26:29;;;;;;;11.77;2.67;;;12.50;99.90;;;;;;10488499;28;20090;-27
2023/03/24 09:31:32;;;;;;;18.67;4.85;;;11.80;99.90;;;;;;10487542;28;20115;-25
2023/03/24 09:36:34;;;;;;;27.40;3.67;;;12.60;99.90;;;;;;10483832;28;21401;-23
2023/03/24 09:41:36;;;;;;;25.58;3.53;;;12.10;99.90;;;;;;10471568;28;20075;-25
2023/03/24 09:46:47;;;;;;;23.50;3.47;;;11.60;99.90;;;;;;10493774;28;20048;-24
2023/03/24 09:51:53;;;;;;;22.10;4.10;;;12.00;99.90;;;;;;10505751;28;20153;-23
2023/03/24 09:56:55;;;;;;;18.38;3.10;;;12.40;99.90;;;;;;10480999;28;20185;-26
2023/03/24 10:01:58;;;;;;;18.60;2.72;;;12.00;99.90;;;;;;10486930;28;20048;-25
2023/03/24 10:07:07;;;;;;;23.58;3.55;;;12.50;99.90;;;;;;10493332;28;20103;-24
2023/03/24 10:12:20;;;;;;;19.40;5.05;;;11.90;99.90;;;;;;10486770;28;20056;-25
2023/03/24 10:17:32;;;;;;;24.23;3.47;;;11.80;99.90;;;;;;10492161;28;20083;-24
2023/03/24 10:22:40;;;;;;;27.20;3.10;;;12.10;99.90;;;;;;10487658;28;20160;-24
2023/03/24 10:27:46;;;;;;;11.48;2.28;;;11.90;99.90;;;;;;10478583;28;20105;-23
2023/03/24 10:32:50;;;;;;;23.48;2.88;;;13.10;99.90;;;;;;10477756;28;20140;-22
2023/03/24 10:37:52;;;;;;;16.40;2.25;;;12.50;99.90;;;;;;10486691;28;20044;-24
2023/03/24 10:42:55;;;;;;;16.92;1.95;;;13.10;99.90;;;;;;10486586;28;20044;-24
2023/03/24 10:48:01;;;;;;;15.68;2.55;;;12.90;99.90;;;;;;10467366;28;20056;-23
2023/03/24 10:53:09;;;;;;;18.42;2.58;;;12.60;99.90;;;;;;10475529;28;20151;-24
2023/03/24 10:58:20;;;;;;;14.25;1.95;;;12.20;99.90;;;;;;10499320;28;20524;-24
2023/03/24 11:03:28;;;;;;;16.45;2.70;;;12.20;99.90;;;;;;10491144;28;20049;-24
2023/03/24 11:08:34;;;;;;;22.50;2.75;;;12.70;99.90;;;;;;10491129;28;20481;-24
2023/03/24 11:13:36;;;;;;;15.38;2.08;;;12.60;99.90;;;;;;10484928;28;20113;-25
2023/03/24 11:18:56;;;;;;;10.07;2.22;;;13.00;99.90;;;;;;10485286;28;20067;-25
2023/03/24 11:24:00;;;;;;;11.02;1.40;;;13.40;99.90;;;;;;10491072;28;20074;-24
2023/03/24 11:29:06;;;;;;;22.17;3.13;;;12.40;99.90;;;;;;10499201;28;20530;-26
2023/03/24 11:34:15;;;;;;;8.95;1.80;;;12.40;99.90;;;;;;10466569;28;20049;-24
2023/03/24 11:39:20;;;;;;;16.35;2.78;;;12.60;99.90;;;;;;10481204;28;20099;-30
2023/03/24 11:44:25;;;;;;;14.55;3.33;;;12.50;99.90;;;;;;10484072;28;20060;-23
2023/03/24 11:49:31;;;;;;;9.98;2.17;;;13.30;99.90;;;;;;10482373;28;20044;-26
2023/03/24 11:54:36;;;;;;;14.40;2.63;;;13.30;99.90;;;;;;10481655;28;20045;-25
2023/03/24 11:59:46;;;;;;;20.38;2.95;;;13.50;99.90;;;;;;10486143;28;20503;-26
2023/03/24 12:05:03;;;;;;;24.38;3.47;;;13.90;99.90;;;;;;10484305;28;20053;-24
2023/03/24 12:10:21;;;;;;;20.45;3.50;;;13.10;99.90;;;;;;10488478;28;20048;-25
2023/03/24 12:15:40;;;;;;;21.48;2.72;;;13.00;99.90;;;;;;10405549;28;20143;-24
2023/03/24 12:20:52;;;;;;;19.55;2.58;;;13.10;99.90;;;;;;10411272;28;20045;-25
2023/03/24 12:26:15;;;;;;;24.23;3.15;;;13.50;99.90;;;;;;10415050;28;20080;-24
2023/03/24 12:31:35;;;;;;;23.73;2.45;;;13.30;99.90;;;;;;10411642;28;20042;-25
2023/03/24 12:36:45;;;;;;;20.52;3.13;;;13.90;99.90;;;;;;10400998;28;20670;-25
2023/03/24 12:42:09;;;;;;;30.05;3.28;;;14.00;99.90;;;;;;10402790;28;20470;-26
2023/03/24 12:47:23;;;;;;;19.55;3.42;;;14.00;99.90;;;;;;10400525;28;20069;-25
2023/03/24 12:52:44;;;;;;;17.02;2.75;;;14.00;99.90;;;;;;10407058;28;20816;-26
2023/03/24 12:57:51;;;;;;;22.88;3.75;;;13.20;99.90;;;;;;10400596;28;20108;-25
2023/03/24 13:02:57;;;;;;;28.85;4.70;;;13.10;99.90;;;;;;10413902;28;20041;-24
2023/03/24 13:08:07;;;;;;;21.75;3.53;;;13.30;99.90;;;;;;10409683;28;20143;-24
2023/03/24 13:13:13;;;;;;;23.77;3.42;;;13.80;99.90;;;;;;10447848;28;20485;-24
2023/03/24 13:18:27;;;;;;;19.90;2.70;;;13.60;99.90;;;;;;10488411;28;20130;-24
2023/03/24 13:23:41;;;;;;;12.90;2.95;;;14.00;99.90;;;;;;10488492;28;20097;-24
2023/03/24 13:28:54;;;;;;;23.80;3.30;;;14.20;99.90;;;;;;10489002;28;20072;-23
2023/03/24 13:33:58;;;;;;;24.92;2.33;;;13.80;99.90;;;;;;10487469;28;20393;-23
2023/03/24 13:39:05;;;;;;;23.05;3.10;;;14.00;99.90;;;;;;10495748;28;20165;-24
2023/03/24 13:44:09;;;;;;;22.13;2.50;;;14.40;99.90;;;;;;10492250;28;20552;-24
2023/03/24 13:49:14;;;;;;;12.00;2.05;;;14.50;99.90;;;;;;10485157;28;20064;-24
2023/03/24 13:54:20;;;;;;;22.33;2.50;;;15.00;99.90;;;;;;10486323;28;20048;-27
2023/03/24 13:59:28;;;;;;;13.68;2.90;;;14.70;99.90;;;;;;10473532;28;20194;-24
2023/03/24 14:04:44;;;;;;;23.50;3.80;;;14.90;99.90;;;;;;10476320;28;20075;-23
2023/03/24 14:09:58;;;;;;;15.90;3.20;;;15.00;99.90;;;;;;10497031;28;20047;-27
2023/03/24 14:15:14;;;;;;;22.88;3.13;;;14.80;99.90;;;;;;10486961;28;20126;-26
2023/03/24 14:20:34;;;;;;;15.75;3.17;;;14.80;99.90;;;;;;10476901;28;20059;-27
2023/03/24 14:25:38;;;;;;;21.55;3.10;;;15.30;99.90;;;;;;10484528;28;20049;-25
2023/03/24 14:31:08;;;;;;;35.72;4.05;;;15.20;99.90;;;;;;10482408;28;20068;-24
2023/03/24 14:36:13;;;;;;;15.55;3.95;;;14.90;99.90;;;;;;10473392;28;20625;-25
2023/03/24 14:41:26;;;;;;;20.33;2.88;;;15.00;99.90;;;;;;10490972;28;20408;-24
2023/03/24 14:46:41;;;;;;;15.32;2.90;;;15.20;99.90;;;;;;10503482;28;20063;-26
2023/03/24 14:51:45;;;;;;;19.75;2.55;;;15.70;99.90;;;;;;10495630;28;20484;-24
2023/03/24 14:56:52;;;;;;;22.42;4.38;;;15.60;96.40;;;;;;10488812;28;20106;-24
2023/03/24 15:02:01;;;;;;;20.92;3.35;;;15.20;96.10;;;;;;10481912;28;20760;-26
2023/03/24 15:07:04;;;;;;;18.42;3.33;;;15.10;98.20;;;;;;10496865;28;20559;-24
2023/03/24 15:12:07;;;;;;;15.18;2.85;;;15.30;96.20;;;;;;10487180;28;20532;-24
2023/03/24 15:17:19;;;;;;;11.68;2.83;;;16.00;99.90;;;;;;10484076;28;20143;-25
2023/03/24 15:22:21;;;;;;;8.40;2.60;;;15.60;95.10;;;;;;10502895;28;20118;-25
2023/03/24 15:27:26;;;;;;;18.70;3.20;;;16.30;95.40;;;;;;10487286;28;20057;-24
2023/03/24 15:32:37;;;;;;;18.98;2.58;;;15.90;99.90;;;;;;10487974;28;20481;-24
2023/03/24 15:37:46;;;;;;;14.02;2.40;;;16.30;99.90;;;;;;10481998;28;20048;-24
2023/03/24 15:42:50;;;;;;;17.85;2.30;;;16.20;99.30;;;;;;10480816;28;20048;-25
2023/03/24 15:47:53;;;;;;;20.40;2.90;;;16.70;95.40;;;;;;10485494;28;20105;-24
2023/03/24 15:52:59;;;;;;;19.13;2.92;;;15.30;97.50;;;;;;10508534;28;20143;-24
2023/03/24 15:58:21;;;;;;;20.95;2.90;;;14.10;99.90;;;;;;10495614;28;20381;-24
2023/03/24 16:03:25;;;;;;;15.52;2.65;;;14.50;99.90;;;;;;10502112;28;20127;-26
2023/03/24 16:08:34;;;;;;;17.35;2.22;;;14.60;99.90;;;;;;10497997;28;20487;-25
2023/03/24 16:13:39;;;;;;;11.18;1.98;;;15.30;99.90;;;;;;10494772;28;20114;-25
2023/03/24 16:18:42;;;;;;;21.50;2.70;;;15.30;99.90;;;;;;10495004;28;20048;-23
2023/03/24 16:23:44;;;;;;;15.40;2.72;;;14.90;99.90;;;;;;10488066;28;20068;-24
2023/03/24 16:28:49;;;;;;;13.38;2.53;;;15.70;99.90;;;;;;10482333;28;20541;-24
2023/03/24 16:33:52;;;;;;;17.60;2.65;;;16.40;94.60;;;;;;10506273;28;20080;-24
2023/03/24 16:38:55;;;;;;;16.33;2.58;;;16.10;99.90;;;;;;10492914;28;20512;-24
2023/03/24 16:43:58;;;;;;;18.50;1.95;;;15.80;91.00;;;;;;10486074;28;20127;-24
2023/03/24 16:49:01;;;;;;;18.67;2.53;;;16.20;99.90;;;;;;10485709;28;20068;-25
2023/03/24 16:54:04;;;;;;;13.27;2.25;;;16.30;99.80;;;;;;10495859;28;20087;-25
2023/03/24 16:59:08;;;;;;;14.20;3.10;;;15.30;95.10;;;;;;10502360;28;20144;-25
2023/03/24 17:04:14;;;;;;;11.50;2.25;;;15.80;91.60;;;;;;10482122;28;20041;-24
2023/03/24 17:09:17;;;;;;;16.15;2.03;;;15.80;91.70;;;;;;10495941;28;20040;-24
2023/03/24 17:14:20;;;;;;;27.25;2.35;;;14.90;98.70;;;;;;10496115;28;20052;-25
2023/03/24 17:19:23;;;;;;;12.88;1.80;;;14.30;97.20;;;;;;10487614;28;20044;-27
2023/03/24 17:24:25;;;;;;;20.00;2.97;;;14.60;99.90;;;;;;10480997;28;20045;-27
2023/03/24 17:29:28;;;;;;;14.13;2.40;;;14.80;99.90;;;;;;10491207;28;20462;-24
2023/03/24 17:34:30;;;;;;;25.67;3.10;;;14.00;99.90;;;;;;10502758;28;20648;-25
2023/03/24 17:39:32;;;;;;;28.80;3.47;;;13.50;99.90;;;;;;10482721;28;20084;-24
2023/03/24 17:44:36;;;;;;;19.77;2.65;;;13.40;99.90;;;;;;10482762;28;20601;-25
2023/03/24 17:49:38;;;;;;;13.60;2.40;;;13.50;99.90;;;;;;10481043;28;20072;-25
2023/03/24 17:54:40;;;;;;;12.32;1.75;;;13.60;99.90;;;;;;10479333;28;20493;-26
2023/03/24 17:59:43;;;;;;;21.03;2.63;;;12.70;99.90;;;;;;10491679;28;20048;-24
2023/03/24 18:04:46;;;;;;;14.82;2.55;;;12.80;99.90;;;;;;10480091;28;20048;-25
2023/03/24 18:09:48;;;;;;;15.05;2.17;;;13.00;99.90;;;;;;10478672;28;20060;-24
2023/03/24 18:14:51;;;;;;;15.10;2.47;;;13.00;99.90;;;;;;10481013;28;20056;-24
2023/03/24 18:19:53;;;;;;;17.15;2.45;;;12.80;99.90;;;;;;10485921;28;20659;-25
2023/03/24 18:24:56;;;;;;;13.63;2.58;;;12.60;99.90;;;;;;10489305;28;20094;-25
2023/03/24 18:30:00;;;;;;;13.00;2.25;;;12.30;99.90;;;;;;10478438;28;20068;-24
2023/03/24 18:35:03;;;;;;;8.93;1.75;;;12.60;99.90;;;;;;10486720;28;20102;-29
2023/03/24 18:40:07;;;;;;;19.23;3.00;;;12.90;99.90;;;;;;10498525;28;20476;-29
2023/03/24 18:45:16;;;;;;;17.17;2.38;;;12.40;99.90;;;;;;10483677;28;20497;-27
2023/03/24 18:50:18;;;;;;;14.82;2.47;;;12.50;99.90;;;;;;10470079;28;20420;-29
2023/03/24 18:55:20;;;;;;;10.23;1.58;;;11.90;99.90;;;;;;10476755;28;20551;-25
2023/03/24 19:00:24;;;;;;;13.77;2.22;;;12.60;99.90;;;;;;10479868;28;20044;-27
2023/03/24 19:05:28;;;;;;;14.77;2.05;;;12.20;99.90;;;;;;10487987;28;20076;-28
2023/03/24 19:10:32;;;;;;;16.77;2.03;;;12.00;99.90;;;;;;10480388;28;20055;-27
2023/03/24 19:15:36;;;;;;;7.30;1.60;;;11.60;99.90;;;;;;10483423;28;20522;-25
2023/03/24 19:20:39;;;;;;;10.13;2.40;;;12.40;99.90;;;;;;10476884;28;21161;-25
2023/03/24 19:25:41;;;;;;;10.25;1.75;;;12.20;99.90;;;;;;10484001;28;20122;-25
2023/03/24 19:30:44;;;;;;;13.35;1.67;;;12.50;99.90;;;;;;10509993;28;20053;-24
2023/03/24 19:35:47;;;;;;;16.02;2.08;;;12.40;99.90;;;;;;10475029;28;20076;-26
2023/03/24 19:40:51;;;;;;;15.45;3.25;;;12.20;99.90;;;;;;10502747;28;20527;-25
2023/03/24 19:45:55;;;;;;;13.40;4.00;;;12.40;99.90;;;;;;10469989;28;20049;-26
2023/03/24 19:50:57;;;;;;;11.30;1.88;;;12.60;99.90;;;;;;10474854;28;20069;-29
2023/03/24 19:56:00;;;;;;;18.17;2.58;;;12.30;99.90;;;;;;10473449;28;20463;-28
2023/03/24 20:01:03;;;;;;;14.45;1.92;;;12.00;99.90;;;;;;10493413;28;20044;-26
2023/03/24 20:06:07;;;;;;;19.35;2.40;;;12.60;99.90;;;;;;10467537;28;20084;-26
2023/03/24 20:11:11;;;;;;;13.60;1.98;;;12.70;99.90;;;;;;10480443;28;20457;-30
2023/03/24 20:16:14;;;;;;;16.08;1.30;;;11.90;99.90;;;;;;10490674;28;20075;-29
2023/03/24 20:21:21;;;;;;;17.05;2.35;;;12.70;99.90;;;;;;10506353;28;20052;-27
2023/03/24 20:26:22;;;;;;;13.02;1.65;;;11.80;99.90;;;;;;10501886;28;20087;-28
2023/03/24 20:31:26;;;;;;;13.50;2.13;;;12.60;99.90;;;;;;10474079;28;20128;-27
2023/03/24 20:36:28;;;;;;;23.17;3.25;;;12.10;99.90;;;;;;10488095;28;20049;-28
2023/03/24 20:41:30;;;;;;;21.38;2.78;;;12.10;99.90;;;;;;10480263;28;20542;-27
2023/03/24 20:46:33;;;;;;;25.95;2.80;;;12.90;99.90;;;;;;10481884;28;20086;-24
2023/03/24 20:51:35;;;;;;;18.88;2.38;;;12.00;99.90;;;;;;10496546;28;20129;-27
2023/03/24 20:56:38;;;;;;;22.25;2.95;;;12.30;99.90;;;;;;10489232;28;20048;-27
2023/03/24 21:01:41;;;;;;;15.95;1.83;;;11.70;99.90;;;;;;10486470;28;20080;-27
2023/03/24 21:06:43;;;;;;;19.25;2.45;;;12.10;99.90;;;;;;10482860;28;20052;-27
2023/03/24 21:11:45;;;;;;;12.43;1.10;;;11.50;99.90;;;;;;10480516;28;20173;-26
2023/03/24 21:16:48;;;;;;;22.33;1.90;;;12.00;99.90;;;;;;10486400;28;20540;-27
2023/03/24 21:21:50;;;;;;;15.68;2.80;;;11.00;99.90;;;;;;10472923;28;20068;-27
2023/03/24 21:26:55;;;;;;;10.60;1.70;;;11.70;99.90;;;;;;10485496;28;20048;-27
2023/03/24 21:31:59;;;;;;;12.35;1.90;;;11.20;99.90;;;;;;10493653;28;20051;-26
2023/03/24 21:37:01;;;;;;;12.07;1.75;;;11.90;99.90;;;;;;10476441;28;20461;-31
2023/03/24 21:42:05;;;;;;;18.35;2.22;;;12.10;99.90;;;;;;10491411;28;20047;-27
2023/03/24 21:47:08;;;;;;;27.25;4.13;;;11.70;99.90;;;;;;10495264;28;20044;-27
2023/03/24 21:52:10;;;;;;;18.08;3.22;;;11.20;99.90;;;;;;10489571;28;20048;-26
2023/03/24 21:57:12;;;;;;;14.15;2.10;;;11.10;99.90;;;;;;10485297;28;20048;-26
2023/03/24 22:02:17;;;;;;;15.95;3.15;;;11.30;99.90;;;;;;10480613;28;20123;-27
2023/03/24 22:07:21;;;;;;;12.38;2.45;;;11.40;99.90;;;;;;10496027;28;20051;-27
2023/03/24 22:12:23;;;;;;;24.92;2.67;;;11.70;99.90;;;;;;10495510;28;20138;-26
2023/03/24 22:17:26;;;;;;;13.60;2.40;;;11.30;99.90;;;;;;10464585;28;20044;-26
2023/03/24 22:22:28;;;;;;;20.60;3.38;;;10.70;99.90;;;;;;10478077;28;20526;-26
2023/03/24 22:27:30;;;;;;;25.37;3.93;;;11.00;99.90;;;;;;10489027;28;20179;-26
2023/03/24 22:32:34;;;;;;;12.43;2.22;;;10.90;99.90;;;;;;10489855;28;20082;-26
2023/03/24 22:37:36;;;;;;;25.77;3.70;;;10.40;99.90;;;;;;10480948;28;20071;-26
2023/03/24 22:42:37;;;;;;;24.75;3.47;;;11.00;99.90;;;;;;10481416;28;20044;-24
2023/03/24 22:47:41;;;;;;;18.15;2.55;;;10.80;99.90;;;;;;10454146;28;20603;-27
2023/03/24 22:52:43;;;;;;;13.57;2.05;;;11.30;99.90;;;;;;10496486;28;20052;-27
2023/03/24 22:57:45;;;;;;;22.73;3.47;;;10.90;99.90;;;;;;10484075;28;20114;-27
2023/03/24 23:02:48;;;;;;;21.47;2.57;;;11.10;99.90;;;;;;10498639;28;20071;-26
2023/03/24 23:07:50;;;;;;;19.52;4.03;;;11.50;99.90;;;;;;10477477;28;20044;-31
2023/03/24 23:12:53;;;;;;;24.77;2.65;;;11.10;99.90;;;;;;10477926;28;20056;-28
2023/03/24 23:17:57;;;;;;;22.30;2.50;;;11.90;99.90;;;;;;10485668;28;20056;-31
2023/03/24 23:23:00;;;;;;;32.03;4.22;;;11.10;99.90;;;;;;10488335;28;20049;-25
2023/03/24 23:28:02;;;;;;;21.40;3.75;;;10.60;99.90;;;;;;10471597;28;20051;-25
2023/03/24 23:33:05;;;;;;;26.75;2.95;;;11.20;99.90;;;;;;10481088;28;20495;-27
2023/03/24 23:38:07;;;;;;;23.33;3.15;;;11.10;99.90;;;;;;10473138;28;20478;-26
2023/03/24 23:43:10;;;;;;;17.73;3.05;;;10.90;99.90;;;;;;10477383;28;20073;-25
2023/03/24 23:48:13;;;;;;;19.93;3.63;;;10.90;99.90;;;;;;10472922;28;20041;-25
2023/03/24 23:53:15;;;;;;;23.40;3.70;;;11.10;99.90;;;;;;10478780;28;20044;-28
2023/03/24 23:58:16;;;;;;;15.18;2.70;;;11.30;99.90;;;;;;10499168;28;20058;-27
